createdAt,value
2022-11-05T00:02:28.013Z,7.67
2022-11-05T00:05:13.152Z,7.74
2022-11-05T00:08:01.630Z,7.78
2022-11-05T00:10:31.611Z,7.83
2022-11-05T00:13:18.721Z,7.85
2022-11-05T00:16:04.210Z,7.89
2022-11-05T00:18:32.117Z,7.93
2022-11-05T00:21:00.149Z,7.98
2022-11-05T00:23:45.576Z,8.01
2022-11-05T00:26:13.999Z,8.06
2022-11-05T00:28:44.607Z,8.14
2022-11-05T00:31:14.139Z,8.18
2022-11-05T00:33:43.526Z,8.21
2022-11-05T00:36:12.438Z,8.21
2022-11-05T00:38:40.104Z,8.20
2022-11-05T00:41:08.116Z,8.21
2022-11-05T00:43:53.357Z,8.25
2022-11-05T00:46:23.317Z,8.27
2022-11-05T00:49:08.739Z,8.30
2022-11-05T00:51:36.423Z,8.33
2022-11-05T00:54:04.189Z,8.35
2022-11-05T00:56:31.854Z,8.28
2022-11-05T00:58:59.516Z,8.30
2022-11-05T01:01:29.168Z,8.34
2022-11-05T01:03:56.925Z,8.35
2022-11-05T01:06:25.095Z,8.45
2022-11-05T01:08:53.386Z,8.47
2022-11-05T01:11:34.146Z,8.47
2022-11-05T01:14:02.796Z,8.55
2022-11-05T01:16:32.536Z,8.55
2022-11-05T01:19:00.775Z,8.64
2022-11-05T01:21:28.561Z,8.70
2022-11-05T01:23:56.532Z,8.72
2022-11-05T01:26:24.909Z,8.75
2022-11-05T01:28:53.094Z,8.76
2022-11-05T01:31:20.915Z,8.73
2022-11-05T01:33:50.815Z,8.75
2022-11-05T01:36:19.113Z,8.67
2022-11-05T01:38:47.124Z,8.64
2022-11-05T01:41:14.814Z,8.67
2022-11-05T01:43:50.813Z,8.62
2022-11-05T01:46:22.728Z,8.61
2022-11-05T01:49:00.105Z,8.61
2022-11-05T01:51:31.820Z,8.57
2022-11-05T01:54:04.206Z,8.57
2022-11-05T01:56:38.982Z,8.59
2022-11-05T01:59:12.884Z,8.52
2022-11-05T02:01:40.658Z,8.60
2022-11-05T02:04:14.545Z,8.58
2022-11-05T02:06:45.974Z,8.65
2022-11-05T02:09:17.777Z,8.64
2022-11-05T02:11:45.421Z,8.55
2022-11-05T02:14:13.804Z,8.59
2022-11-05T02:16:47.852Z,8.62
2022-11-05T02:20:00.934Z,8.58
2022-11-05T02:23:04.095Z,8.65
2022-11-05T02:26:00.794Z,8.61
2022-11-05T02:28:50.709Z,8.55
2022-11-05T02:31:27.239Z,8.62
2022-11-05T02:34:03.157Z,8.72
2022-11-05T02:36:41.713Z,8.77
2022-11-05T02:39:25.303Z,8.81
2022-11-05T02:42:05.323Z,8.81
2022-11-05T02:44:40.635Z,8.74
2022-11-05T02:47:22.993Z,8.75
2022-11-05T02:49:58.217Z,8.67
2022-11-05T02:52:33.205Z,8.69
2022-11-05T02:55:09.519Z,8.76
2022-11-05T02:57:37.544Z,8.77
2022-11-05T03:00:08.155Z,8.81
2022-11-05T03:02:37.404Z,8.78
2022-11-05T03:05:06.357Z,8.79
2022-11-05T03:07:48.963Z,8.76
2022-11-05T03:10:28.417Z,8.83
2022-11-05T03:13:09.282Z,8.86
2022-11-05T03:15:50.745Z,8.84
2022-11-05T03:18:27.126Z,8.86
2022-11-05T03:21:03.837Z,8.88
2022-11-05T03:23:39.649Z,8.81
2022-11-05T03:26:17.329Z,8.85
2022-11-05T03:28:50.531Z,8.80
2022-11-05T03:31:19.801Z,8.83
2022-11-05T03:33:52.725Z,8.94
2022-11-05T03:36:25.144Z,9.02
2022-11-05T03:38:55.885Z,9.08
2022-11-05T03:41:25.899Z,9.09
2022-11-05T03:43:59.594Z,9.02
2022-11-05T03:46:30.668Z,9.00
2022-11-05T03:49:04.666Z,9.08
2022-11-05T03:51:39.866Z,9.12
2022-11-05T03:54:08.425Z,9.16
2022-11-05T03:56:41.315Z,9.21
2022-11-05T03:59:11.104Z,9.23
2022-11-05T04:01:40.197Z,9.27
2022-11-05T04:04:10.312Z,9.31
2022-11-05T04:06:54.577Z,9.29
2022-11-05T04:09:40.491Z,9.27
2022-11-05T04:12:27.797Z,9.23
2022-11-05T04:14:55.832Z,9.12
2022-11-05T04:17:22.606Z,9.13
2022-11-05T04:20:09.471Z,9.10
2022-11-05T04:22:55.293Z,9.08
2022-11-05T04:25:23.436Z,9.11
2022-11-05T04:27:51.173Z,9.08
2022-11-05T04:30:19.840Z,9.06
2022-11-05T04:33:01.112Z,9.08
2022-11-05T04:35:32.793Z,9.07
2022-11-05T04:38:00.697Z,9.10
2022-11-05T04:40:29.216Z,9.13
2022-11-05T04:42:57.471Z,9.11
2022-11-05T04:45:27.137Z,9.12
2022-11-05T04:47:54.802Z,9.15
2022-11-05T04:50:23.089Z,9.17
2022-11-05T04:52:52.238Z,9.19
2022-11-05T04:55:19.998Z,9.25
2022-11-05T04:57:49.491Z,9.14
2022-11-05T05:00:18.507Z,9.12
2022-11-05T05:02:46.764Z,9.09
2022-11-05T05:05:15.064Z,8.95
2022-11-05T05:07:42.929Z,8.98
2022-11-05T05:10:12.543Z,9.02
2022-11-05T05:12:40.235Z,8.93
2022-11-05T05:15:08.725Z,8.99
2022-11-05T05:17:36.354Z,8.93
2022-11-05T05:20:22.066Z,8.84
2022-11-05T05:22:52.903Z,8.83
2022-11-05T05:25:22.529Z,8.87
2022-11-05T05:27:50.210Z,8.97
2022-11-05T05:30:18.353Z,9.03
2022-11-05T05:32:46.166Z,9.05
2022-11-05T05:35:13.861Z,9.00
2022-11-05T05:37:41.825Z,9.04
2022-11-05T05:40:10.707Z,9.05
2022-11-05T05:42:43.194Z,9.10
2022-11-05T05:45:12.349Z,9.11
2022-11-05T05:47:40.414Z,9.14
2022-11-05T05:50:08.393Z,9.18
2022-11-05T05:52:36.401Z,9.17
2022-11-05T05:55:04.396Z,9.19
2022-11-05T05:57:32.306Z,9.21
2022-11-05T06:00:01.925Z,9.15
2022-11-05T06:02:39.831Z,9.14
2022-11-05T06:05:08.065Z,8.94
2022-11-05T06:07:37.586Z,9.06
2022-11-05T06:10:06.079Z,9.07
2022-11-05T06:12:34.061Z,9.06
2022-11-05T06:15:03.642Z,9.06
2022-11-05T06:17:31.609Z,9.08
2022-11-05T06:19:59.254Z,9.07
2022-11-05T06:22:27.220Z,9.03
2022-11-05T06:24:54.840Z,9.03
2022-11-05T06:27:23.091Z,9.12
2022-11-05T06:29:50.897Z,9.09
2022-11-05T06:32:19.940Z,9.08
2022-11-05T06:34:47.582Z,9.18
2022-11-05T06:37:15.576Z,9.20
2022-11-05T06:39:43.228Z,9.23
2022-11-05T06:42:18.320Z,9.24
2022-11-05T06:44:46.846Z,9.24
2022-11-05T06:47:14.949Z,9.21
2022-11-05T06:49:43.980Z,9.21
2022-11-05T06:52:12.367Z,9.34
2022-11-05T06:54:40.759Z,9.32
2022-11-05T06:57:09.538Z,9.36
2022-11-05T06:59:37.412Z,9.37
2022-11-05T07:02:05.354Z,9.40
2022-11-05T07:04:33.408Z,9.39
2022-11-05T07:07:02.987Z,9.46
2022-11-05T07:09:30.744Z,9.40
2022-11-05T07:11:58.541Z,9.43
2022-11-05T07:14:26.197Z,9.29
2022-11-05T07:16:53.873Z,9.34
2022-11-05T07:19:21.962Z,9.41
2022-11-05T07:21:51.360Z,9.38
2022-11-05T07:24:20.330Z,9.35
2022-11-05T07:26:47.997Z,9.44
2022-11-05T07:29:15.615Z,9.51
2022-11-05T07:31:43.280Z,9.51
2022-11-05T07:34:10.929Z,9.49
2022-11-05T07:36:40.071Z,9.55
2022-11-05T07:39:07.837Z,9.43
2022-11-05T07:41:37.698Z,9.47
2022-11-05T07:44:05.421Z,9.52
2022-11-05T07:46:33.067Z,9.60
2022-11-05T07:49:00.761Z,9.56
2022-11-05T07:51:28.866Z,9.59
2022-11-05T07:53:56.588Z,9.50
2022-11-05T07:56:24.763Z,9.57
2022-11-05T07:58:53.763Z,9.32
2022-11-05T08:01:21.920Z,9.50
2022-11-05T08:03:49.735Z,9.34
2022-11-05T08:06:17.415Z,9.15
2022-11-05T08:08:45.056Z,9.44
2022-11-05T08:11:13.194Z,9.36
2022-11-05T08:13:42.727Z,9.48
2022-11-05T08:16:12.569Z,9.40
2022-11-05T08:18:40.275Z,9.29
2022-11-05T08:21:09.220Z,9.21
2022-11-05T08:23:38.603Z,9.30
2022-11-05T08:26:07.077Z,9.27
2022-11-05T08:28:34.711Z,9.08
2022-11-05T08:31:02.712Z,9.24
2022-11-05T08:33:33.098Z,9.09
2022-11-05T08:36:03.347Z,9.36
2022-11-05T08:38:31.341Z,8.99
2022-11-05T08:41:00.382Z,9.10
2022-11-05T08:43:28.117Z,9.14
2022-11-05T08:45:56.536Z,9.25
2022-11-05T08:48:24.232Z,9.40
2022-11-05T08:50:53.528Z,9.40
2022-11-05T08:53:21.253Z,9.58
2022-11-05T08:55:50.971Z,10.01
2022-11-05T08:58:20.667Z,10.09
2022-11-05T09:00:50.642Z,10.13
2022-11-05T09:03:19.300Z,10.14
2022-11-05T09:05:47.621Z,9.93
2022-11-05T09:08:18.580Z,10.07
2022-11-05T09:10:50.059Z,10.39
2022-11-05T09:13:19.770Z,10.27
2022-11-05T09:15:49.011Z,10.06
2022-11-05T09:18:18.205Z,9.79
2022-11-05T09:20:46.518Z,9.90
2022-11-05T09:23:16.116Z,9.81
2022-11-05T09:25:45.116Z,9.69
2022-11-05T09:28:16.841Z,9.36
2022-11-05T09:30:46.893Z,9.61
2022-11-05T09:33:14.697Z,9.63
2022-11-05T09:35:43.000Z,9.55
2022-11-05T09:38:11.545Z,9.78
2022-11-05T09:40:44.096Z,9.76
2022-11-05T09:43:19.562Z,9.76
2022-11-05T09:45:51.402Z,9.78
2022-11-05T09:48:24.585Z,9.81
2022-11-05T09:50:54.964Z,9.77
2022-11-05T09:53:24.372Z,9.49
2022-11-05T09:55:57.597Z,9.48
2022-11-05T09:58:39.867Z,9.63
2022-11-05T10:01:15.769Z,9.55
2022-11-05T10:03:47.013Z,9.46
2022-11-05T10:06:21.833Z,9.61
2022-11-05T10:08:55.605Z,9.74
2022-11-05T10:11:31.337Z,9.56
2022-11-05T10:14:02.789Z,9.80
2022-11-05T10:16:35.984Z,9.43
2022-11-05T10:19:10.685Z,9.61
2022-11-05T10:22:05.088Z,9.79
2022-11-05T10:24:28.319Z,10.00
2022-11-05T10:26:58.587Z,9.86
2022-11-05T10:29:30.238Z,10.05
2022-11-05T10:31:59.747Z,10.17
2022-11-05T10:34:30.522Z,9.93
2022-11-05T10:36:58.429Z,9.90
2022-11-05T10:39:27.650Z,10.01
2022-11-05T10:42:24.896Z,10.07
2022-11-05T10:45:00.584Z,10.08
2022-11-05T10:47:45.101Z,9.88
2022-11-05T10:50:17.465Z,9.97
2022-11-05T10:52:55.378Z,10.10
2022-11-05T10:55:26.169Z,10.10
2022-11-05T10:57:57.579Z,9.96
2022-11-05T11:00:28.366Z,10.07
2022-11-05T11:02:59.322Z,10.40
2022-11-05T11:05:30.779Z,10.47
2022-11-05T11:08:05.490Z,10.68
2022-11-05T11:10:49.769Z,10.71
2022-11-05T11:13:22.875Z,10.41
2022-11-05T11:15:51.395Z,10.38
2022-11-05T11:18:27.430Z,11.05
2022-11-05T11:21:05.603Z,12.10
2022-11-05T11:23:37.959Z,12.38
2022-11-05T11:26:07.416Z,12.44
2022-11-05T11:28:39.134Z,12.88
2022-11-05T11:31:12.317Z,12.80
2022-11-05T11:33:43.540Z,12.29
2022-11-05T11:36:13.781Z,12.09
2022-11-05T11:38:42.560Z,11.40
2022-11-05T11:41:24.990Z,11.52
2022-11-05T11:43:58.094Z,11.68
2022-11-05T11:46:26.845Z,11.47
2022-11-05T11:48:54.573Z,11.11
2022-11-05T11:51:35.072Z,11.29
2022-11-05T11:54:04.215Z,11.03
2022-11-05T11:56:44.656Z,10.92
2022-11-05T11:59:40.538Z,10.63
2022-11-05T12:02:35.299Z,10.68
2022-11-05T12:05:37.121Z,10.43
2022-11-05T12:08:19.574Z,10.49
2022-11-05T12:10:59.076Z,10.32
2022-11-05T12:13:49.336Z,9.98
2022-11-05T12:16:27.502Z,9.95
2022-11-05T12:19:03.886Z,10.17
2022-11-05T12:21:52.534Z,10.49
2022-11-05T12:24:55.399Z,10.49
2022-11-05T12:27:34.523Z,10.66
2022-11-05T12:30:09.169Z,10.65
2022-11-05T12:32:55.854Z,10.42
2022-11-05T12:35:45.743Z,10.62
2022-11-05T12:38:27.330Z,10.77
2022-11-05T12:41:12.555Z,10.85
2022-11-05T12:43:53.100Z,10.85
2022-11-05T12:46:28.322Z,10.76
2022-11-05T12:49:20.197Z,10.78
2022-11-05T12:52:02.966Z,10.85
2022-11-05T12:54:44.499Z,10.89
2022-11-05T12:57:15.279Z,10.82
2022-11-05T12:59:51.545Z,10.42
2022-11-05T13:02:27.877Z,10.43
2022-11-05T13:05:01.939Z,10.44
2022-11-05T13:07:34.430Z,10.68
2022-11-05T13:10:06.930Z,10.72
2022-11-05T13:12:40.281Z,11.05
2022-11-05T13:15:21.164Z,11.25
2022-11-05T13:17:52.965Z,11.14
2022-11-05T13:20:25.317Z,11.15
2022-11-05T13:22:59.063Z,11.03
2022-11-05T13:25:29.623Z,11.46
2022-11-05T13:28:03.803Z,11.53
2022-11-05T13:30:37.293Z,11.43
2022-11-05T13:33:11.875Z,11.39
2022-11-05T13:35:46.213Z,11.42
2022-11-05T13:38:38.991Z,11.60
2022-11-05T13:41:21.594Z,11.02
2022-11-05T13:44:05.947Z,11.09
2022-11-05T13:46:56.227Z,10.96
2022-11-05T13:49:52.964Z,10.92
2022-11-05T13:52:36.519Z,10.96
2022-11-05T13:55:49.390Z,10.75
2022-11-05T13:58:45.973Z,10.62
2022-11-05T14:01:24.788Z,10.46
2022-11-05T14:03:54.993Z,10.82
2022-11-05T14:06:28.805Z,10.70
2022-11-05T14:09:02.002Z,10.73
2022-11-05T14:11:33.732Z,10.61
2022-11-05T14:14:04.179Z,10.56
2022-11-05T14:16:49.011Z,10.25
2022-11-05T14:19:34.544Z,10.24
2022-11-05T14:22:42.359Z,9.80
2022-11-05T14:25:56.930Z,9.49
2022-11-05T14:28:51.852Z,9.68
2022-11-05T14:31:54.434Z,10.06
2022-11-05T14:34:24.018Z,10.30
2022-11-05T14:37:20.753Z,10.13
2022-11-05T14:39:48.573Z,10.41
2022-11-05T14:42:21.217Z,10.54
2022-11-05T14:45:03.074Z,10.66
2022-11-05T14:47:34.272Z,10.52
2022-11-05T14:50:09.463Z,10.35
2022-11-05T14:52:39.069Z,10.49
2022-11-05T14:55:23.228Z,10.56
2022-11-05T14:58:21.162Z,10.62
2022-11-05T15:00:51.201Z,10.65
2022-11-05T15:04:02.994Z,10.46
2022-11-05T15:06:36.636Z,10.40
2022-11-05T15:09:27.677Z,10.29
2022-11-05T15:12:19.549Z,10.41
2022-11-05T15:14:58.291Z,10.55
2022-11-05T15:17:30.711Z,10.46
2022-11-05T15:20:10.234Z,10.46
2022-11-05T15:22:42.981Z,10.52
2022-11-05T15:25:18.812Z,10.59
2022-11-05T15:28:06.593Z,10.59
2022-11-05T15:30:34.464Z,10.52
2022-11-05T15:33:19.930Z,10.47
2022-11-05T15:35:47.594Z,10.44
2022-11-05T15:38:31.440Z,10.25
2022-11-05T15:41:01.293Z,10.25
2022-11-05T15:43:29.241Z,10.23
2022-11-05T15:46:06.101Z,10.06
2022-11-05T15:48:37.148Z,10.05
2022-11-05T15:51:05.114Z,9.86
2022-11-05T15:56:30.875Z,9.57
2022-11-05T15:59:02.864Z,9.63
2022-11-05T16:01:34.337Z,9.65
2022-11-05T16:04:15.841Z,9.65
2022-11-05T16:06:46.236Z,9.60
2022-11-05T16:09:25.433Z,9.63
2022-11-05T16:12:14.651Z,9.32
2022-11-05T16:14:42.783Z,9.47
2022-11-05T16:17:20.835Z,9.50
2022-11-05T16:19:50.733Z,9.52
2022-11-05T16:22:18.720Z,9.57
2022-11-05T16:24:47.832Z,9.53
2022-11-05T16:27:19.699Z,9.63
2022-11-05T16:29:51.179Z,9.64
2022-11-05T16:32:26.857Z,9.57
2022-11-05T16:35:02.417Z,9.57
2022-11-05T16:37:46.332Z,9.62
2022-11-05T16:40:19.940Z,9.54
2022-11-05T16:42:48.867Z,9.50
2022-11-05T16:45:19.500Z,9.44
2022-11-05T16:47:48.219Z,9.47
2022-11-05T16:50:20.816Z,9.47
2022-11-05T16:52:49.529Z,9.44
2022-11-05T16:55:17.907Z,9.44
2022-11-05T16:57:49.160Z,9.46
2022-11-05T17:00:19.217Z,9.50
2022-11-05T17:02:47.386Z,9.56
2022-11-05T17:05:21.283Z,9.57
2022-11-05T17:07:48.983Z,9.39
2022-11-05T17:10:17.024Z,9.46
2022-11-05T17:12:45.527Z,9.20
2022-11-05T17:15:18.920Z,9.12
2022-11-05T17:17:47.147Z,9.19
2022-11-05T17:20:27.246Z,9.21
2022-11-05T17:22:56.078Z,9.30
2022-11-05T17:25:24.349Z,9.20
2022-11-05T17:27:52.593Z,9.28
2022-11-05T17:30:20.376Z,9.35
2022-11-05T17:32:48.078Z,9.18
2022-11-05T17:35:16.872Z,9.32
2022-11-05T17:37:45.903Z,9.22
2022-11-05T17:40:16.374Z,9.14
2022-11-05T17:42:44.588Z,8.98
2022-11-05T17:45:13.664Z,8.92
2022-11-05T17:47:42.401Z,8.92
2022-11-05T17:50:13.318Z,8.78
2022-11-05T17:52:41.160Z,8.80
2022-11-05T17:55:16.737Z,8.78
2022-11-05T17:57:46.095Z,8.90
2022-11-05T18:00:15.318Z,9.05
2022-11-05T18:02:43.159Z,9.07
2022-11-05T18:05:11.725Z,9.07
2022-11-05T18:07:39.616Z,9.09
2022-11-05T18:10:09.285Z,9.10
2022-11-05T18:12:38.557Z,8.95
2022-11-05T18:15:08.310Z,8.86
2022-11-05T18:17:36.552Z,8.93
2022-11-05T18:20:04.987Z,8.89
2022-11-05T18:22:32.681Z,8.98
2022-11-05T18:25:00.702Z,9.14
2022-11-05T18:27:28.453Z,9.14
2022-11-05T18:29:57.841Z,9.20
2022-11-05T18:32:25.528Z,9.24
2022-11-05T18:34:53.549Z,9.24
2022-11-05T18:37:21.266Z,9.29
2022-11-05T18:39:52.219Z,9.28
2022-11-05T18:42:20.598Z,9.33
2022-11-05T18:44:48.800Z,9.35
2022-11-05T18:47:17.931Z,9.35
2022-11-05T18:49:45.934Z,9.32
2022-11-05T18:52:13.736Z,9.31
2022-11-05T18:54:42.066Z,9.28
2022-11-05T18:57:09.727Z,9.26
2022-11-05T18:59:39.650Z,9.11
2022-11-05T19:02:08.462Z,9.13
2022-11-05T19:04:38.448Z,9.11
2022-11-05T19:07:06.912Z,9.14
2022-11-05T19:09:35.288Z,9.14
2022-11-05T19:12:03.452Z,9.10
2022-11-05T19:14:31.550Z,8.99
2022-11-05T19:17:00.278Z,8.95
2022-11-05T19:19:29.075Z,8.95
2022-11-05T19:21:58.655Z,8.97
2022-11-05T19:24:26.493Z,8.92
2022-11-05T19:26:54.559Z,8.98
2022-11-05T19:29:22.196Z,8.97
2022-11-05T19:31:50.496Z,9.02
2022-11-05T19:34:18.183Z,9.05
2022-11-05T19:36:46.514Z,9.07
2022-11-05T19:39:16.327Z,9.10
2022-11-05T19:41:44.325Z,9.11
2022-11-05T19:44:12.140Z,9.11
2022-11-05T19:46:40.449Z,9.12
2022-11-05T19:49:08.104Z,9.12
2022-11-05T19:51:36.466Z,9.11
2022-11-05T19:54:05.279Z,9.16
2022-11-05T19:56:37.013Z,9.21
2022-11-05T19:59:06.448Z,9.22
2022-11-05T20:01:35.564Z,9.20
2022-11-05T20:04:03.552Z,9.17
2022-11-05T20:06:33.580Z,9.13
2022-11-05T20:11:54.811Z,8.94
2022-11-05T20:14:23.433Z,8.89
2022-11-05T20:16:51.504Z,8.73
2022-11-05T20:19:22.322Z,8.65
2022-11-05T20:21:50.677Z,8.53
2022-11-05T20:24:24.371Z,8.47
2022-11-05T20:26:55.815Z,8.32
2022-11-05T20:29:29.080Z,8.18
2022-11-05T20:32:02.383Z,7.96
2022-11-05T20:34:30.408Z,7.92
2022-11-05T20:36:58.708Z,7.87
2022-11-05T20:39:26.452Z,7.78
2022-11-05T20:41:57.116Z,7.55
2022-11-05T20:44:24.835Z,7.39
2022-11-05T20:46:52.970Z,7.17
2022-11-05T20:49:25.118Z,7.15
2022-11-05T20:51:54.113Z,7.11
2022-11-05T20:54:21.774Z,7.08
2022-11-05T20:56:49.452Z,7.08
2022-11-05T20:59:18.472Z,6.90
2022-11-05T21:01:46.303Z,6.85
2022-11-05T21:04:14.006Z,6.81
2022-11-05T21:06:42.013Z,6.76
2022-11-05T21:09:09.754Z,6.75
2022-11-05T21:11:51.985Z,6.72
2022-11-05T21:14:21.078Z,6.76
2022-11-05T21:16:48.791Z,6.66
2022-11-05T21:19:16.600Z,6.75
2022-11-05T21:21:44.297Z,6.71
2022-11-05T21:24:11.941Z,6.64
2022-11-05T21:26:40.141Z,6.56
2022-11-05T21:29:08.628Z,6.23
2022-11-05T21:31:38.844Z,6.29
2022-11-05T21:34:06.708Z,6.26
2022-11-05T21:36:35.246Z,6.09
2022-11-05T21:39:04.853Z,5.90
2022-11-05T21:41:34.605Z,5.91
2022-11-05T21:44:03.905Z,5.87
2022-11-05T21:46:32.005Z,5.67
2022-11-05T21:49:02.290Z,5.72
2022-11-05T21:51:47.960Z,5.69
2022-11-05T21:54:33.121Z,5.66
2022-11-05T21:57:18.816Z,5.63
2022-11-05T21:59:49.578Z,5.53
2022-11-05T22:02:20.045Z,5.32
2022-11-05T22:04:51.143Z,5.43
2022-11-05T22:07:20.512Z,5.41
2022-11-05T22:09:48.562Z,5.43
2022-11-05T22:12:16.373Z,5.41
2022-11-05T22:14:44.350Z,5.26
2022-11-05T22:17:13.661Z,5.28
2022-11-05T22:19:41.362Z,5.35
2022-11-05T22:22:10.572Z,5.37
2022-11-05T22:24:38.331Z,5.37
2022-11-05T22:27:07.608Z,5.35
2022-11-05T22:29:37.705Z,5.35
2022-11-05T22:32:06.395Z,5.29
2022-11-05T22:34:34.290Z,5.32
2022-11-05T22:37:01.999Z,5.33
2022-11-05T22:39:31.353Z,5.36
2022-11-05T22:42:04.198Z,5.38
2022-11-05T22:44:35.119Z,5.38
2022-11-05T22:47:03.124Z,5.45
2022-11-05T22:49:30.789Z,5.46
2022-11-05T22:51:58.843Z,5.42
2022-11-05T22:54:26.788Z,5.43
2022-11-05T22:56:56.365Z,5.45
2022-11-05T22:59:24.259Z,5.47
2022-11-05T23:01:52.653Z,5.45
2022-11-05T23:04:20.439Z,5.22
2022-11-05T23:07:05.771Z,4.84
2022-11-05T23:09:53.082Z,4.79
2022-11-05T23:12:25.909Z,4.72
2022-11-05T23:14:54.336Z,4.65
2022-11-05T23:17:39.813Z,4.64
2022-11-05T23:20:29.628Z,4.64
2022-11-05T23:23:15.424Z,4.63
2022-11-05T23:25:43.708Z,4.67
2022-11-05T23:28:13.745Z,4.72
2022-11-05T23:30:58.932Z,4.79
2022-11-05T23:33:26.821Z,4.90
2022-11-05T23:36:12.864Z,5.03
2022-11-05T23:38:40.755Z,5.12
2022-11-05T23:41:26.557Z,5.20
2022-11-05T23:44:13.155Z,5.35
2022-11-05T23:46:58.799Z,5.36
2022-11-05T23:49:26.737Z,5.41
2022-11-05T23:51:55.112Z,5.49
2022-11-05T23:54:22.919Z,5.56
2022-11-05T23:56:51.011Z,5.58
2022-11-05T23:59:20.040Z,5.61
